createdAt,value
2022-08-22T00:01:12.715Z,101848.72
2022-08-22T00:02:41.887Z,101816.78
2022-08-22T00:02:42.590Z,101822.28
2022-08-22T00:02:45.174Z,101814.41
2022-08-22T00:03:01.247Z,101829.22
2022-08-22T00:03:04.029Z,101829.88
2022-08-22T00:03:53.997Z,101836.41
2022-08-22T00:06:34.603Z,101852.84
2022-08-22T00:09:31.982Z,101850.28
2022-08-22T00:12:15.525Z,101849.38
2022-08-22T00:14:51.599Z,101849.56
2022-08-22T00:17:35.533Z,101844.63
2022-08-22T00:20:08.919Z,101841.31
2022-08-22T00:23:20.255Z,101852.16
2022-08-22T00:25:56.973Z,101843.44
2022-08-22T00:28:24.412Z,101841.31
2022-08-22T00:31:18.122Z,101845.44
2022-08-22T00:33:51.217Z,101845.44
2022-08-22T00:36:36.704Z,101844.63
2022-08-22T00:39:16.564Z,101843.78
2022-08-22T00:41:52.740Z,101846.75
2022-08-22T00:44:41.677Z,101851.69
2022-08-22T00:47:27.502Z,101844.63
2022-08-22T00:50:27.184Z,101844.97
2022-08-22T00:53:23.716Z,101850.69
2022-08-22T00:56:03.108Z,101844.22
2022-08-22T00:58:42.377Z,101847.50
2022-08-22T01:01:15.707Z,101849.63
2022-08-22T01:03:54.642Z,101847.75
2022-08-22T01:06:44.327Z,101846.09
2022-08-22T01:09:43.415Z,101848.56
2022-08-22T01:12:29.328Z,101848.09
2022-08-22T01:15:05.872Z,101847.56
2022-08-22T01:17:54.611Z,101850.84
2022-08-22T01:20:59.673Z,101851.38
2022-08-22T01:24:10.405Z,101846.91
2022-08-22T01:27:15.325Z,101849.63
2022-08-22T01:29:53.905Z,101847.97
2022-08-22T01:32:36.285Z,101845.84
2022-08-22T01:35:34.070Z,101851.84
2022-08-22T01:38:11.314Z,101847.75
2022-08-22T01:41:17.359Z,101847.97
2022-08-22T01:44:38.521Z,101849.28
2022-08-22T01:47:06.017Z,101845.19
2022-08-22T01:49:46.701Z,101855.78
2022-08-22T01:52:44.844Z,101848.81
2022-08-22T01:55:25.245Z,101853.38
2022-08-22T01:58:03.992Z,101862.00
2022-08-22T02:00:53.639Z,101849.44
2022-08-22T02:03:31.983Z,101861.34
2022-08-22T02:06:07.582Z,101865.28
2022-08-22T02:08:59.368Z,101871.25
2022-08-22T02:11:57.865Z,101872.31
2022-08-22T02:15:02.080Z,101880.94
2022-08-22T02:17:35.268Z,101887.63
2022-08-22T02:20:20.557Z,101880.34
2022-08-22T02:23:19.967Z,101885.53
2022-08-22T02:25:56.377Z,101891.28
2022-08-22T02:29:01.366Z,101890.88
2022-08-22T02:31:55.956Z,101895.25
2022-08-22T02:34:37.513Z,101879.28
2022-08-22T02:37:08.129Z,101892.66
2022-08-22T02:39:57.364Z,101891.41
2022-08-22T02:42:59.113Z,101894.41
2022-08-22T02:45:45.164Z,101894.78
2022-08-22T02:48:34.369Z,101891.22
2022-08-22T02:51:14.955Z,101904.75
2022-08-22T02:53:55.730Z,101903.53
2022-08-22T02:57:06.300Z,101902.44
2022-08-22T03:00:31.040Z,101901.09
2022-08-22T03:03:00.576Z,101912.75
2022-08-22T03:05:50.524Z,101896.88
2022-08-22T03:08:25.707Z,101905.66
2022-08-22T03:11:16.057Z,101897.00
2022-08-22T03:14:03.998Z,101901.63
2022-08-22T03:16:45.614Z,101905.69
2022-08-22T03:19:18.750Z,101909.16
2022-08-22T03:22:09.773Z,101920.34
2022-08-22T03:24:55.439Z,101914.00
2022-08-22T03:27:33.864Z,101917.63
2022-08-22T03:30:12.191Z,101914.75
2022-08-22T03:32:56.976Z,101919.06
2022-08-22T03:35:36.766Z,101918.44
2022-08-22T03:38:33.327Z,101915.63
2022-08-22T03:41:13.076Z,101931.22
2022-08-22T03:44:12.232Z,101913.78
2022-08-22T03:46:58.263Z,101920.59
2022-08-22T03:49:28.404Z,101916.72
2022-08-22T03:52:08.865Z,101921.56
2022-08-22T03:55:07.039Z,101926.34
2022-08-22T03:57:52.347Z,101928.28
2022-08-22T04:00:37.416Z,101930.31
2022-08-22T04:03:42.293Z,101933.72
2022-08-22T04:06:39.140Z,101930.06
2022-08-22T04:09:36.079Z,101934.13
2022-08-22T04:12:20.288Z,101925.53
2022-08-22T04:15:17.602Z,101941.72
2022-08-22T04:18:02.526Z,101932.28
2022-08-22T04:21:08.281Z,101935.63
2022-08-22T04:24:07.550Z,101941.91
2022-08-22T04:26:56.391Z,101950.09
2022-08-22T04:29:32.760Z,101947.66
2022-08-22T04:32:38.587Z,101946.97
2022-08-22T04:35:27.770Z,101944.56
2022-08-22T04:38:04.874Z,101937.75
2022-08-22T04:40:36.207Z,101943.63
2022-08-22T04:43:14.931Z,101938.88
2022-08-22T04:45:50.722Z,101943.59
2022-08-22T04:48:45.919Z,101939.72
2022-08-22T04:51:16.584Z,101943.38
2022-08-22T04:54:12.569Z,101942.63
2022-08-22T04:56:49.074Z,101921.06
2022-08-22T04:59:19.289Z,101939.94
2022-08-22T05:01:55.980Z,101946.81
2022-08-22T05:04:39.036Z,101936.56
2022-08-22T05:07:36.080Z,101945.28
2022-08-22T05:10:11.781Z,101944.91
2022-08-22T05:13:11.488Z,101941.56
2022-08-22T05:15:46.302Z,101937.03
2022-08-22T05:18:36.478Z,101937.25
2022-08-22T05:21:08.932Z,101943.88
2022-08-22T05:23:44.741Z,101934.56
2022-08-22T05:26:15.581Z,101939.63
2022-08-22T05:28:53.251Z,101946.25
2022-08-22T05:31:35.202Z,101937.06
2022-08-22T05:34:11.645Z,101937.81
2022-08-22T05:36:43.777Z,101935.00
2022-08-22T05:39:18.094Z,101933.66
2022-08-22T05:41:46.695Z,101930.66
2022-08-22T05:44:23.946Z,101919.38
2022-08-22T05:47:23.551Z,101933.81
2022-08-22T05:50:05.789Z,101928.69
2022-08-22T05:52:56.807Z,101931.56
2022-08-22T05:55:28.121Z,101929.38
2022-08-22T05:58:30.704Z,101930.16
2022-08-22T06:01:47.014Z,101924.72
2022-08-22T06:04:31.487Z,101917.75
2022-08-22T06:07:26.889Z,101919.84
2022-08-22T06:10:26.061Z,101927.59
2022-08-22T06:13:11.988Z,101927.66
2022-08-22T06:16:05.996Z,101921.56
2022-08-22T06:18:38.406Z,101916.28
2022-08-22T06:21:19.112Z,101921.63
2022-08-22T06:23:56.934Z,101916.47
2022-08-22T06:26:34.999Z,101925.56
2022-08-22T06:29:03.875Z,101921.25
2022-08-22T06:31:45.915Z,101911.25
2022-08-22T06:34:24.978Z,101908.66
2022-08-22T06:36:56.480Z,101920.41
2022-08-22T06:39:29.741Z,101918.72
2022-08-22T06:42:03.284Z,101910.34
2022-08-22T06:44:38.630Z,101907.03
2022-08-22T06:47:10.626Z,101922.38
2022-08-22T06:49:40.880Z,101915.84
2022-08-22T06:52:37.827Z,101940.31
2022-08-22T06:55:10.293Z,101909.97
2022-08-22T06:57:45.832Z,101916.13
2022-08-22T07:00:17.418Z,101908.56
2022-08-22T07:02:49.344Z,101911.56
2022-08-22T07:05:25.378Z,101907.91
2022-08-22T07:07:53.364Z,101908.88
2022-08-22T07:10:22.884Z,101897.78
2022-08-22T07:12:54.418Z,101894.75
2022-08-22T07:15:37.439Z,101908.59
2022-08-22T07:18:10.105Z,101907.59
2022-08-22T07:20:42.275Z,101901.78
2022-08-22T07:23:13.446Z,101904.19
2022-08-22T07:26:15.357Z,101885.19
2022-08-22T07:29:03.350Z,101901.25
2022-08-22T07:31:46.784Z,101895.63
2022-08-22T07:34:23.948Z,101893.72
2022-08-22T07:37:07.045Z,101898.09
2022-08-22T07:39:42.110Z,101874.97
2022-08-22T07:42:28.592Z,101887.31
2022-08-22T07:45:03.468Z,101892.00
2022-08-22T07:47:56.118Z,101883.09
2022-08-22T07:50:30.525Z,101876.78
2022-08-22T07:53:06.328Z,101891.19
2022-08-22T07:55:42.233Z,101888.72
2022-08-22T07:58:18.594Z,101881.38
2022-08-22T08:00:49.197Z,101883.00
2022-08-22T08:03:21.091Z,101874.53
2022-08-22T08:05:49.226Z,101870.50
2022-08-22T08:08:44.801Z,101868.06
2022-08-22T08:11:18.419Z,101871.25
2022-08-22T08:13:50.074Z,101876.72
2022-08-22T08:16:20.349Z,101881.81
2022-08-22T08:18:51.324Z,101871.44
2022-08-22T08:21:28.063Z,101877.09
2022-08-22T08:23:56.568Z,101866.66
2022-08-22T08:26:36.051Z,101874.75
2022-08-22T08:29:07.832Z,101873.25
2022-08-22T08:31:44.927Z,101881.00
2022-08-22T08:34:18.338Z,101863.59
2022-08-22T08:36:55.518Z,101863.06
2022-08-22T08:39:35.119Z,101846.97
2022-08-22T08:42:18.219Z,101868.59
2022-08-22T08:45:04.665Z,101845.84
2022-08-22T08:47:35.925Z,101859.34
2022-08-22T08:50:29.562Z,101853.44
2022-08-22T08:53:21.861Z,101861.41
2022-08-22T08:56:04.780Z,101868.91
2022-08-22T08:58:55.775Z,101861.81
2022-08-22T09:01:29.318Z,101855.88
2022-08-22T09:07:25.234Z,101850.13
2022-08-22T09:10:41.388Z,101875.56
2022-08-22T09:13:46.927Z,101844.41
2022-08-22T09:16:35.315Z,101855.69
2022-08-22T09:19:23.427Z,101843.56
2022-08-22T09:22:05.820Z,101836.69
2022-08-22T09:25:06.060Z,101828.69
2022-08-22T09:27:44.265Z,101861.03
2022-08-22T09:30:15.858Z,101833.53
2022-08-22T09:33:12.281Z,101861.75
2022-08-22T09:36:05.075Z,101854.41
2022-08-22T09:38:48.331Z,101845.00
2022-08-22T09:41:44.982Z,101843.09
2022-08-22T09:44:34.932Z,101843.50
2022-08-22T09:47:25.706Z,101818.16
2022-08-22T09:50:02.121Z,101830.06
2022-08-22T09:53:08.214Z,101832.53
2022-08-22T09:55:48.236Z,101827.56
2022-08-22T09:58:43.154Z,101827.81
2022-08-22T10:01:23.272Z,101832.13
2022-08-22T10:04:33.526Z,101823.97
2022-08-22T10:07:19.307Z,101815.78
2022-08-22T10:10:03.981Z,101822.84
2022-08-22T10:12:38.129Z,101827.38
2022-08-22T10:15:16.090Z,101840.22
2022-08-22T10:17:59.774Z,101818.03
2022-08-22T10:20:36.607Z,101815.91
2022-08-22T10:23:32.528Z,101804.06
2022-08-22T10:26:23.093Z,101814.69
2022-08-22T10:28:59.296Z,101815.88
2022-08-22T10:31:59.193Z,101809.25
2022-08-22T10:34:46.234Z,101811.97
2022-08-22T10:37:31.291Z,101783.00
2022-08-22T10:40:13.991Z,101793.25
2022-08-22T10:42:59.560Z,101788.75
2022-08-22T10:45:36.111Z,101776.03
2022-08-22T10:48:38.103Z,101776.13
2022-08-22T10:51:16.613Z,101794.56
2022-08-22T10:53:56.759Z,101781.53
2022-08-22T10:56:48.101Z,101772.06
2022-08-22T10:59:33.169Z,101783.16
2022-08-22T11:02:25.426Z,101780.03
2022-08-22T11:05:29.722Z,101775.19
2022-08-22T11:08:12.210Z,101767.47
2022-08-22T11:10:52.201Z,101764.53
2022-08-22T11:13:27.735Z,101776.22
2022-08-22T11:16:00.471Z,101779.09
2022-08-22T11:18:58.084Z,101760.47
2022-08-22T11:22:01.448Z,101764.06
2022-08-22T11:24:56.499Z,101757.16
2022-08-22T11:27:46.833Z,101746.53
2022-08-22T11:30:21.374Z,101752.72
2022-08-22T11:33:09.962Z,101753.44
2022-08-22T11:35:49.211Z,101748.69
2022-08-22T11:38:57.376Z,101753.69
2022-08-22T11:41:28.203Z,101744.09
2022-08-22T11:44:06.565Z,101781.47
2022-08-22T11:46:37.391Z,101760.06
2022-08-22T11:49:32.966Z,101766.78
2022-08-22T11:52:06.357Z,101759.03
2022-08-22T11:55:03.683Z,101738.63
2022-08-22T11:57:48.770Z,101737.09
2022-08-22T12:00:26.717Z,101772.47
2022-08-22T12:03:02.980Z,101752.41
2022-08-22T12:05:51.205Z,101751.28
2022-08-22T12:08:22.453Z,101760.34
2022-08-22T12:11:19.836Z,101745.38
2022-08-22T12:14:06.851Z,101746.94
2022-08-22T12:16:56.443Z,101749.34
2022-08-22T12:20:05.790Z,101746.75
2022-08-22T12:22:58.037Z,101744.97
2022-08-22T12:25:57.941Z,101731.53
2022-08-22T12:28:44.147Z,101743.28
2022-08-22T12:31:20.816Z,101742.03
2022-08-22T12:34:18.355Z,101732.00
2022-08-22T12:37:09.156Z,101740.06
2022-08-22T12:40:00.599Z,101734.78
2022-08-22T12:47:19.182Z,101739.16
2022-08-22T12:49:52.809Z,101732.66
2022-08-22T12:52:20.272Z,101737.56
2022-08-22T12:55:18.370Z,101724.06
2022-08-22T12:58:11.850Z,101730.28
2022-08-22T13:00:45.387Z,101737.38
2022-08-22T13:03:35.657Z,101728.34
2022-08-22T13:06:25.378Z,101724.66
2022-08-22T13:08:54.825Z,101727.69
2022-08-22T13:11:23.849Z,101724.56
2022-08-22T13:14:00.558Z,101726.88
2022-08-22T13:16:39.139Z,101718.81
2022-08-22T13:19:32.333Z,101727.97
2022-08-22T13:23:15.681Z,101722.47
2022-08-22T13:26:24.537Z,101733.09
2022-08-22T13:29:24.453Z,101727.81
2022-08-22T13:32:03.162Z,101707.47
2022-08-22T13:34:45.200Z,101729.84
2022-08-22T13:37:17.283Z,101716.38
2022-08-22T13:39:52.691Z,101714.84
2022-08-22T13:42:30.382Z,101713.69
2022-08-22T13:45:03.097Z,101708.28
2022-08-22T13:47:39.667Z,101713.03
2022-08-22T13:50:30.066Z,101707.22
2022-08-22T13:53:30.101Z,101690.34
2022-08-22T13:56:15.788Z,101711.38
2022-08-22T13:58:50.608Z,101715.44
2022-08-22T14:02:07.229Z,101716.38
2022-08-22T14:04:39.862Z,101711.88
2022-08-22T14:07:11.331Z,101712.13
2022-08-22T14:10:14.811Z,101709.56
2022-08-22T14:13:18.482Z,101716.97
2022-08-22T14:15:47.032Z,101722.88
2022-08-22T14:18:20.769Z,101707.75
2022-08-22T14:21:39.939Z,101708.91
2022-08-22T14:24:08.437Z,101701.28
2022-08-22T14:26:47.345Z,101690.09
2022-08-22T14:29:19.151Z,101687.19
2022-08-22T14:32:23.321Z,101700.09
2022-08-22T14:35:03.099Z,101706.69
2022-08-22T14:37:38.872Z,101693.97
2022-08-22T14:40:28.104Z,101696.84
2022-08-22T14:42:59.984Z,101688.53
2022-08-22T14:45:35.490Z,101696.41
2022-08-22T14:48:30.999Z,101699.63
2022-08-22T14:51:08.416Z,101697.56
2022-08-22T14:53:40.657Z,101694.31
2022-08-22T14:56:27.977Z,101698.25
2022-08-22T14:59:06.665Z,101701.25
2022-08-22T15:01:54.764Z,101703.09
2022-08-22T15:04:28.451Z,101689.47
2022-08-22T15:06:59.232Z,101698.56
2022-08-22T15:09:56.003Z,101694.31
2022-08-22T15:12:34.282Z,101697.91
2022-08-22T15:15:13.149Z,101686.94
2022-08-22T15:17:45.352Z,101698.00
2022-08-22T15:20:27.575Z,101699.56
2022-08-22T15:23:25.035Z,101704.72
2022-08-22T15:26:05.708Z,101705.03
2022-08-22T15:28:53.131Z,101710.44
2022-08-22T15:31:22.443Z,101712.50
2022-08-22T15:33:51.927Z,101706.34
2022-08-22T15:36:22.843Z,101714.69
2022-08-22T15:38:52.621Z,101719.16
2022-08-22T15:41:31.472Z,101714.50
2022-08-22T15:44:32.501Z,101710.66
2022-08-22T15:47:03.581Z,101723.28
2022-08-22T15:49:39.146Z,101725.28
2022-08-22T15:52:20.599Z,101720.63
2022-08-22T15:54:51.307Z,101718.72
2022-08-22T15:57:39.171Z,101728.66
2022-08-22T16:00:28.114Z,101725.63
2022-08-22T16:03:06.376Z,101732.81
2022-08-22T16:05:55.601Z,101733.31
2022-08-22T16:08:33.109Z,101735.31
2022-08-22T16:11:03.811Z,101740.56
2022-08-22T16:13:31.373Z,101748.50
2022-08-22T16:16:12.814Z,101743.81
2022-08-22T16:18:40.439Z,101746.78
2022-08-22T16:21:28.066Z,101750.50
2022-08-22T16:23:58.357Z,101751.03
2022-08-22T16:26:32.013Z,101753.00
2022-08-22T16:29:02.569Z,101753.81
2022-08-22T16:31:38.192Z,101757.38
2022-08-22T16:34:17.559Z,101762.88
2022-08-22T16:37:18.294Z,101764.84
2022-08-22T16:39:50.237Z,101767.94
2022-08-22T16:42:22.509Z,101766.47
2022-08-22T16:44:52.327Z,101762.56
2022-08-22T16:47:37.709Z,101765.81
2022-08-22T16:50:21.988Z,101767.75
2022-08-22T16:52:57.986Z,101770.00
2022-08-22T16:55:31.576Z,101774.66
2022-08-22T16:58:57.040Z,101778.19
2022-08-22T17:01:43.909Z,101778.50
2022-08-22T17:04:17.619Z,101781.84
2022-08-22T17:07:35.290Z,101777.44
2022-08-22T17:10:12.488Z,101785.47
2022-08-22T17:12:42.733Z,101777.16
2022-08-22T17:15:39.784Z,101780.38
2022-08-22T17:18:25.928Z,101782.28
2022-08-22T17:21:18.743Z,101775.16
2022-08-22T17:23:59.696Z,101784.03
2022-08-22T17:26:56.300Z,101786.59
2022-08-22T17:29:53.904Z,101775.34
2022-08-22T17:32:33.576Z,101787.16
2022-08-22T17:35:22.561Z,101784.25
2022-08-22T17:38:17.121Z,101788.41
2022-08-22T17:40:56.275Z,101800.66
2022-08-22T17:43:55.356Z,101793.84
2022-08-22T17:46:43.810Z,101789.91
2022-08-22T17:49:23.131Z,101795.63
2022-08-22T17:52:00.232Z,101787.53
2022-08-22T17:54:37.819Z,101798.16
2022-08-22T17:57:25.202Z,101796.53
2022-08-22T17:59:59.678Z,101783.69
2022-08-22T18:02:36.163Z,101801.22
2022-08-22T18:05:08.279Z,101807.81
2022-08-22T18:07:46.738Z,101804.69
2022-08-22T18:10:43.099Z,101797.69
2022-08-22T18:13:31.753Z,101811.00
2022-08-22T18:16:07.913Z,101802.84
2022-08-22T18:18:39.657Z,101801.97
2022-08-22T18:21:15.431Z,101814.50
2022-08-22T18:23:52.358Z,101811.84
2022-08-22T18:26:51.824Z,101817.97
2022-08-22T18:29:25.724Z,101820.00
2022-08-22T18:32:15.877Z,101825.28
2022-08-22T18:34:56.592Z,101820.72
2022-08-22T18:37:35.907Z,101819.38
2022-08-22T18:40:21.838Z,101826.00
2022-08-22T18:42:50.084Z,101844.22
2022-08-22T18:45:20.500Z,101837.19
2022-08-22T18:47:56.965Z,101829.72
2022-08-22T18:50:34.382Z,101816.88
2022-08-22T18:53:02.196Z,101831.13
2022-08-22T18:55:44.726Z,101835.56
2022-08-22T18:58:15.066Z,101844.72
2022-08-22T19:01:18.832Z,101852.22
2022-08-22T19:04:23.446Z,101851.81
2022-08-22T19:07:10.398Z,101861.25
2022-08-22T19:09:49.314Z,101848.41
2022-08-22T19:12:31.605Z,101851.19
2022-08-22T19:15:28.210Z,101854.84
2022-08-22T19:18:10.642Z,101855.53
2022-08-22T19:20:59.278Z,101858.34
2022-08-22T19:23:32.566Z,101866.56
2022-08-22T19:26:21.290Z,101847.97
2022-08-22T19:28:49.475Z,101857.34
2022-08-22T19:31:24.888Z,101860.38
2022-08-22T19:34:34.929Z,101857.91
2022-08-22T19:37:32.436Z,101864.00
2022-08-22T19:40:12.309Z,101859.69
2022-08-22T19:42:43.463Z,101871.31
2022-08-22T19:45:29.366Z,101870.81
2022-08-22T19:48:11.711Z,101879.38
2022-08-22T19:50:41.967Z,101865.53
2022-08-22T19:53:38.273Z,101872.69
2022-08-22T19:56:23.020Z,101884.00
2022-08-22T19:59:20.604Z,101883.75
2022-08-22T20:02:18.183Z,101880.56
2022-08-22T20:05:08.862Z,101882.88
2022-08-22T20:07:49.149Z,101887.28
2022-08-22T20:10:37.656Z,101892.00
2022-08-22T20:13:18.827Z,101891.78
2022-08-22T20:16:05.538Z,101891.81
2022-08-22T20:19:05.188Z,101897.38
2022-08-22T20:22:01.698Z,101902.38
2022-08-22T20:24:51.471Z,101913.38
2022-08-22T20:27:42.175Z,101903.06
2022-08-22T20:30:24.519Z,101902.78
2022-08-22T20:32:59.975Z,101897.13
2022-08-22T20:35:33.686Z,101904.50
2022-08-22T20:38:07.072Z,101909.78
2022-08-22T20:41:14.344Z,101914.16
2022-08-22T20:44:06.907Z,101910.94
2022-08-22T20:46:47.158Z,101910.44
2022-08-22T20:49:30.308Z,101908.06
2022-08-22T20:51:59.050Z,101908.41
2022-08-22T20:54:34.418Z,101916.09
2022-08-22T20:57:16.325Z,101911.75
2022-08-22T20:59:59.042Z,101912.06
2022-08-22T21:02:35.633Z,101912.38
2022-08-22T21:05:12.938Z,101922.22
2022-08-22T21:07:43.557Z,101919.00
2022-08-22T21:10:44.652Z,101929.94
2022-08-22T21:13:27.545Z,101925.91
2022-08-22T21:15:58.596Z,101925.13
2022-08-22T21:18:34.289Z,101935.50
2022-08-22T21:21:17.610Z,101928.19
2022-08-22T21:23:50.099Z,101927.13
2022-08-22T21:26:25.860Z,101941.06
2022-08-22T21:29:07.293Z,101950.13
2022-08-22T21:31:43.081Z,101938.88
2022-08-22T21:34:29.176Z,101936.19
2022-08-22T21:37:13.300Z,101943.31
2022-08-22T21:39:50.560Z,101948.53
2022-08-22T21:42:33.460Z,101957.28
2022-08-22T21:45:04.747Z,101953.22
2022-08-22T21:47:38.382Z,101957.84
2022-08-22T21:50:26.083Z,101957.56
2022-08-22T21:52:56.566Z,101954.31
2022-08-22T21:55:29.980Z,101954.31
2022-08-22T21:58:35.786Z,101966.53
2022-08-22T22:01:30.619Z,101964.38
2022-08-22T22:03:59.489Z,101968.19
2022-08-22T22:06:30.061Z,101961.91
2022-08-22T22:08:58.764Z,101964.63
2022-08-22T22:11:26.337Z,101971.16
2022-08-22T22:13:53.926Z,101967.31
2022-08-22T22:16:26.289Z,101979.31
2022-08-22T22:18:54.018Z,101971.97
2022-08-22T22:21:21.953Z,101976.03
2022-08-22T22:23:50.878Z,101977.66
2022-08-22T22:26:19.026Z,101974.38
2022-08-22T22:28:48.114Z,101983.06
2022-08-22T22:31:18.570Z,101980.34
2022-08-22T22:33:46.442Z,101965.03
2022-08-22T22:36:19.437Z,101984.66
2022-08-22T22:38:47.902Z,101976.44
2022-08-22T22:41:17.701Z,101982.97
2022-08-22T22:43:45.761Z,101990.03
2022-08-22T22:46:13.296Z,101988.63
2022-08-22T22:48:40.815Z,101977.69
2022-08-22T22:51:10.202Z,101984.47
2022-08-22T22:53:42.682Z,101994.28
2022-08-22T22:56:15.913Z,101983.91
2022-08-22T22:58:44.019Z,101985.50
2022-08-22T23:01:19.251Z,101997.44
2022-08-22T23:03:48.166Z,101996.84
2022-08-22T23:06:23.202Z,101991.41
2022-08-22T23:08:51.147Z,101984.22
2022-08-22T23:11:21.952Z,101992.63
2022-08-22T23:13:49.774Z,101994.47
2022-08-22T23:16:20.415Z,101999.34
2022-08-22T23:18:48.377Z,101999.81
2022-08-22T23:21:25.307Z,101994.31
2022-08-22T23:23:58.827Z,102008.41
2022-08-22T23:26:27.063Z,102001.28
2022-08-22T23:28:54.951Z,102002.03
2022-08-22T23:31:39.512Z,102006.06
2022-08-22T23:34:10.533Z,102010.34
2022-08-22T23:36:38.985Z,102008.38
2022-08-22T23:39:08.773Z,102006.41
2022-08-22T23:41:37.202Z,102011.78
2022-08-22T23:44:06.784Z,102006.28
2022-08-22T23:46:36.632Z,102012.25
2022-08-22T23:49:06.605Z,102012.75
2022-08-22T23:51:34.588Z,102008.63
2022-08-22T23:54:02.823Z,102010.25
2022-08-22T23:56:33.522Z,102013.44
2022-08-22T23:59:05.741Z,102012.84
